createdAt,value
2018-04-07T00:00:07.704Z,4.10
2018-04-07T00:01:07.722Z,4.30
2018-04-07T00:02:07.739Z,4.50
2018-04-07T00:03:07.757Z,5.00
2018-04-07T00:04:07.775Z,3.90
2018-04-07T00:05:07.797Z,4.70
2018-04-07T00:06:07.815Z,4.30
2018-04-07T00:07:07.829Z,5.40
2018-04-07T00:08:07.847Z,7.70
2018-04-07T00:09:07.863Z,4.60
2018-04-07T00:10:07.882Z,4.60
2018-04-07T00:11:07.901Z,5.10
2018-04-07T00:12:07.917Z,3.60
2018-04-07T00:13:07.936Z,4.40
2018-04-07T00:14:07.954Z,3.70
2018-04-07T00:15:07.971Z,4.50
2018-04-07T00:16:07.988Z,5.10
2018-04-07T00:17:08.007Z,6.60
2018-04-07T00:18:08.025Z,12.70
2018-04-07T00:19:08.043Z,26.10
2018-04-07T00:20:08.059Z,11.00
2018-04-07T00:21:08.078Z,17.20
2018-04-07T00:22:08.095Z,9.00
2018-04-07T00:23:08.112Z,9.20
2018-04-07T00:24:08.132Z,8.50
2018-04-07T00:25:08.150Z,6.10
2018-04-07T00:26:08.167Z,6.70
2018-04-07T00:27:08.184Z,7.60
2018-04-07T00:28:08.201Z,5.40
2018-04-07T00:29:08.222Z,4.70
2018-04-07T00:30:08.236Z,5.30
2018-04-07T00:31:08.255Z,5.20
2018-04-07T00:32:08.272Z,4.50
2018-04-07T00:33:08.289Z,4.40
2018-04-07T00:34:08.308Z,4.20
2018-04-07T00:35:08.324Z,4.80
2018-04-07T00:36:08.342Z,3.80
2018-04-07T00:37:08.361Z,3.90
2018-04-07T00:38:08.381Z,4.00
2018-04-07T00:39:08.396Z,4.00
2018-04-07T00:40:08.416Z,4.30
2018-04-07T00:41:08.431Z,4.60
2018-04-07T00:42:08.449Z,3.70
2018-04-07T00:43:08.718Z,4.20
2018-04-07T00:44:08.482Z,4.20
2018-04-07T00:45:08.500Z,3.40
2018-04-07T00:46:08.670Z,3.20
2018-04-07T00:47:08.537Z,3.90
2018-04-07T00:48:08.556Z,4.20
2018-04-07T00:49:08.571Z,3.60
2018-04-07T00:50:08.590Z,3.90
2018-04-07T00:51:08.607Z,4.00
2018-04-07T00:52:08.624Z,3.70
2018-04-07T00:53:08.643Z,3.60
2018-04-07T00:54:08.659Z,3.90
2018-04-07T00:55:08.676Z,3.40
2018-04-07T00:56:08.695Z,3.30
2018-04-07T00:57:08.712Z,3.50
2018-04-07T00:58:08.729Z,4.20
2018-04-07T00:59:08.747Z,3.50
2018-04-07T01:00:08.764Z,3.20
2018-04-07T01:01:08.781Z,4.10
2018-04-07T01:02:08.800Z,4.30
2018-04-07T01:03:08.822Z,7.00
2018-04-07T01:04:08.834Z,4.60
2018-04-07T01:05:08.853Z,33.40
2018-04-07T01:06:08.870Z,30.90
2018-04-07T01:07:08.888Z,5.10
2018-04-07T01:08:08.905Z,13.40
2018-04-07T01:09:08.922Z,17.90
2018-04-07T01:10:08.939Z,9.10
2018-04-07T01:11:08.957Z,9.50
2018-04-07T01:12:08.975Z,6.80
2018-04-07T01:13:08.995Z,4.40
2018-04-07T01:14:09.011Z,6.00
2018-04-07T01:15:09.029Z,7.40
2018-04-07T01:16:09.045Z,5.60
2018-04-07T01:17:09.062Z,5.10
2018-04-07T01:18:09.079Z,7.50
2018-04-07T01:19:09.097Z,3.80
2018-04-07T01:20:09.114Z,4.20
2018-04-07T01:21:09.136Z,3.90
2018-04-07T01:22:09.150Z,3.70
2018-04-07T01:23:09.171Z,3.30
2018-04-07T01:24:09.184Z,3.30
2018-04-07T01:25:09.201Z,3.90
2018-04-07T01:26:09.221Z,3.50
2018-04-07T01:27:09.237Z,3.70
2018-04-07T01:28:09.254Z,3.40
2018-04-07T01:29:09.271Z,4.10
2018-04-07T01:30:09.290Z,3.40
2018-04-07T01:31:09.310Z,3.70
2018-04-07T01:32:09.325Z,3.50
2018-04-07T01:33:09.341Z,3.80
2018-04-07T01:34:09.359Z,3.90
2018-04-07T01:35:09.376Z,3.30
2018-04-07T01:36:09.393Z,3.90
2018-04-07T01:37:09.411Z,3.50
2018-04-07T01:38:09.430Z,4.00
2018-04-07T01:39:09.451Z,3.90
2018-04-07T01:40:09.466Z,3.90
2018-04-07T01:41:09.481Z,4.50
2018-04-07T01:42:09.499Z,5.60
2018-04-07T01:43:09.516Z,6.80
2018-04-07T01:44:09.532Z,6.60
2018-04-07T01:45:09.550Z,7.10
2018-04-07T01:46:09.604Z,7.80
2018-04-07T01:47:09.585Z,7.20
2018-04-07T01:48:09.603Z,6.50
2018-04-07T01:49:09.622Z,6.20
2018-04-07T01:50:09.637Z,6.00
2018-04-07T01:51:09.655Z,6.00
2018-04-07T01:52:09.672Z,5.50
2018-04-07T01:53:09.688Z,6.00
2018-04-07T01:54:09.707Z,5.10
2018-04-07T01:55:09.728Z,6.60
2018-04-07T01:56:09.740Z,4.20
2018-04-07T01:57:09.759Z,4.10
2018-04-07T01:58:09.777Z,3.90
2018-04-07T01:59:09.794Z,4.10
2018-04-07T02:00:10.061Z,5.90
2018-04-07T02:01:09.828Z,6.50
2018-04-07T02:02:09.846Z,10.00
2018-04-07T02:03:09.864Z,5.50
2018-04-07T02:04:09.881Z,12.10
2018-04-07T02:05:09.898Z,8.40
2018-04-07T02:06:09.915Z,6.60
2018-04-07T02:07:09.935Z,3.60
2018-04-07T02:08:09.950Z,3.50
2018-04-07T02:09:09.967Z,3.80
2018-04-07T02:10:09.986Z,3.70
2018-04-07T02:11:10.002Z,3.80
2018-04-07T02:12:10.019Z,3.50
2018-04-07T02:13:10.037Z,3.50
2018-04-07T02:14:10.054Z,3.70
2018-04-07T02:15:10.072Z,3.40
2018-04-07T02:16:10.088Z,3.40
2018-04-07T02:17:10.107Z,3.80
2018-04-07T02:18:10.124Z,3.80
2018-04-07T02:19:10.144Z,4.10
2018-04-07T02:20:10.158Z,3.30
2018-04-07T02:21:10.175Z,3.80
2018-04-07T02:22:10.195Z,3.60
2018-04-07T02:23:10.210Z,4.00
2018-04-07T02:24:10.226Z,3.40
2018-04-07T02:25:10.245Z,3.90
2018-04-07T02:26:10.262Z,3.80
2018-04-07T02:27:10.280Z,3.60
2018-04-07T02:28:10.295Z,3.90
2018-04-07T02:29:10.314Z,3.40
2018-04-07T02:30:10.332Z,4.10
2018-04-07T02:31:10.350Z,3.60
2018-04-07T02:32:10.365Z,3.50
2018-04-07T02:33:10.383Z,3.50
2018-04-07T02:34:10.402Z,3.30
2018-04-07T02:35:10.419Z,3.70
2018-04-07T02:36:10.434Z,4.70
2018-04-07T02:37:10.452Z,20.10
2018-04-07T02:38:10.469Z,21.50
2018-04-07T02:39:10.488Z,11.00
2018-04-07T02:40:10.503Z,4.30
2018-04-07T02:41:10.524Z,4.10
2018-04-07T02:42:10.539Z,3.20
2018-04-07T02:43:10.566Z,3.90
2018-04-07T02:44:10.572Z,3.40
2018-04-07T02:45:10.592Z,3.50
2018-04-07T02:46:10.606Z,3.80
2018-04-07T02:47:10.624Z,3.80
2018-04-07T02:48:10.640Z,3.80
2018-04-07T02:49:10.658Z,3.40
2018-04-07T02:50:10.675Z,3.30
2018-04-07T02:51:10.693Z,3.70
2018-04-07T02:52:10.709Z,3.80
2018-04-07T02:53:10.727Z,3.90
2018-04-07T02:54:10.744Z,3.90
2018-04-07T02:55:10.761Z,4.30
2018-04-07T02:56:10.778Z,3.70
2018-04-07T02:57:10.795Z,3.60
2018-04-07T02:58:10.812Z,3.30
2018-04-07T02:59:10.839Z,3.40
2018-04-07T03:00:10.846Z,3.70
2018-04-07T03:01:10.864Z,3.50
2018-04-07T03:02:10.887Z,3.20
2018-04-07T03:03:10.905Z,3.60
2018-04-07T03:04:10.913Z,3.70
2018-04-07T03:05:10.935Z,3.40
2018-04-07T03:06:10.948Z,4.30
2018-04-07T03:07:11.266Z,3.90
2018-04-07T03:08:10.982Z,3.90
2018-04-07T03:09:10.999Z,3.80
2018-04-07T03:10:11.016Z,3.70
2018-04-07T03:11:11.033Z,3.90
2018-04-07T03:12:11.054Z,3.10
2018-04-07T03:13:11.066Z,3.00
2018-04-07T03:14:11.085Z,3.50
2018-04-07T03:15:11.101Z,3.50
2018-04-07T03:16:11.117Z,3.80
2018-04-07T03:17:11.135Z,3.30
2018-04-07T03:18:11.152Z,3.40
2018-04-07T03:19:11.169Z,3.90
2018-04-07T03:20:11.185Z,4.10
2018-04-07T03:21:11.205Z,3.70
2018-04-07T03:22:11.220Z,3.80
2018-04-07T03:23:11.237Z,4.10
2018-04-07T03:24:11.253Z,3.80
2018-04-07T03:25:11.270Z,3.90
2018-04-07T03:26:11.287Z,3.80
2018-04-07T03:27:11.305Z,3.50
2018-04-07T03:28:11.320Z,3.60
2018-04-07T03:29:11.337Z,4.10
2018-04-07T03:30:11.356Z,3.90
2018-04-07T03:31:11.377Z,3.50
2018-04-07T03:32:11.389Z,3.70
2018-04-07T03:33:11.406Z,4.30
2018-04-07T03:34:11.422Z,3.40
2018-04-07T03:35:11.441Z,4.20
2018-04-07T03:36:11.457Z,3.60
2018-04-07T03:37:11.473Z,4.10
2018-04-07T03:38:11.490Z,3.90
2018-04-07T03:39:11.507Z,3.60
2018-04-07T03:40:11.524Z,3.60
2018-04-07T03:41:11.541Z,3.70
2018-04-07T03:42:11.558Z,4.20
2018-04-07T03:43:11.575Z,3.80
2018-04-07T03:44:11.591Z,3.30
2018-04-07T03:45:11.608Z,4.30
2018-04-07T03:46:11.625Z,3.80
2018-04-07T03:47:11.643Z,4.20
2018-04-07T03:48:11.659Z,4.20
2018-04-07T03:49:11.678Z,3.60
2018-04-07T03:50:11.696Z,3.40
2018-04-07T03:51:11.708Z,3.70
2018-04-07T03:52:11.726Z,3.80
2018-04-07T03:53:11.744Z,3.80
2018-04-07T03:54:11.761Z,4.30
2018-04-07T03:55:11.778Z,3.70
2018-04-07T03:56:11.797Z,4.60
2018-04-07T03:57:11.812Z,3.80
2018-04-07T03:58:11.828Z,3.90
2018-04-07T03:59:11.846Z,4.00
2018-04-07T04:00:11.862Z,4.20
2018-04-07T04:01:11.879Z,3.90
2018-04-07T04:02:11.897Z,3.80
2018-04-07T04:03:11.913Z,4.10
2018-04-07T04:04:11.929Z,4.50
2018-04-07T04:05:11.945Z,3.70
2018-04-07T04:06:11.964Z,4.10
2018-04-07T04:07:11.980Z,4.10
2018-04-07T04:08:11.997Z,4.20
2018-04-07T04:09:12.013Z,4.10
2018-04-07T04:10:12.030Z,4.20
2018-04-07T04:11:12.048Z,4.60
2018-04-07T04:12:12.063Z,4.00
2018-04-07T04:13:12.081Z,3.60
2018-04-07T04:14:12.097Z,3.90
2018-04-07T04:15:12.114Z,3.80
2018-04-07T04:16:12.130Z,4.20
2018-04-07T04:17:12.148Z,3.30
2018-04-07T04:18:12.165Z,4.20
2018-04-07T04:19:12.182Z,4.00
2018-04-07T04:20:12.199Z,3.70
2018-04-07T04:21:12.215Z,4.20
2018-04-07T04:22:12.233Z,4.60
2018-04-07T04:23:12.254Z,4.60
2018-04-07T04:24:12.267Z,4.70
2018-04-07T04:25:12.283Z,5.80
2018-04-07T04:26:12.300Z,5.30
2018-04-07T04:27:12.317Z,4.70
2018-04-07T04:28:12.334Z,4.60
2018-04-07T04:29:12.351Z,5.40
2018-04-07T04:30:12.368Z,5.10
2018-04-07T04:31:12.384Z,6.10
2018-04-07T04:32:12.401Z,5.50
2018-04-07T04:33:12.419Z,4.80
2018-04-07T04:34:12.436Z,4.70
2018-04-07T04:35:12.452Z,4.80
2018-04-07T04:36:12.470Z,4.40
2018-04-07T04:37:12.485Z,4.00
2018-04-07T04:38:12.502Z,4.40
2018-04-07T04:39:12.520Z,4.40
2018-04-07T04:40:12.536Z,3.90
2018-04-07T04:41:12.555Z,4.20
2018-04-07T04:42:12.568Z,4.20
2018-04-07T04:43:12.586Z,4.50
2018-04-07T04:44:12.603Z,4.50
2018-04-07T04:45:12.620Z,4.90
2018-04-07T04:46:12.637Z,7.80
2018-04-07T04:47:12.654Z,7.30
2018-04-07T04:48:12.669Z,8.80
2018-04-07T04:49:12.686Z,8.00
2018-04-07T04:50:12.704Z,8.10
2018-04-07T04:51:12.720Z,7.50
2018-04-07T04:52:12.737Z,6.90
2018-04-07T04:53:12.753Z,5.70
2018-04-07T04:54:12.770Z,5.30
2018-04-07T04:55:12.790Z,5.60
2018-04-07T04:56:12.803Z,5.40
2018-04-07T04:57:12.820Z,4.90
2018-04-07T04:58:12.837Z,5.40
2018-04-07T04:59:12.854Z,4.40
2018-04-07T05:00:12.871Z,4.10
2018-04-07T05:01:12.887Z,4.90
2018-04-07T05:02:12.904Z,4.50
2018-04-07T05:03:12.921Z,3.80
2018-04-07T05:04:12.937Z,5.00
2018-04-07T05:05:12.954Z,4.40
2018-04-07T05:06:12.973Z,4.50
2018-04-07T05:07:12.987Z,4.30
2018-04-07T05:08:13.004Z,4.20
2018-04-07T05:09:13.021Z,4.00
2018-04-07T05:10:13.038Z,4.10
2018-04-07T05:11:13.055Z,4.30
2018-04-07T05:12:13.072Z,4.60
2018-04-07T05:13:13.090Z,3.70
2018-04-07T05:14:13.105Z,3.90
2018-04-07T05:15:13.123Z,4.10
2018-04-07T05:16:13.138Z,3.90
2018-04-07T05:17:13.159Z,4.60
2018-04-07T05:18:13.177Z,4.30
2018-04-07T05:19:13.189Z,4.30
2018-04-07T05:20:13.206Z,4.60
2018-04-07T05:21:13.222Z,4.30
2018-04-07T05:22:13.253Z,4.40
2018-04-07T05:23:13.258Z,4.60
2018-04-07T05:24:13.277Z,4.50
2018-04-07T05:25:13.292Z,5.00
2018-04-07T05:26:13.307Z,4.10
2018-04-07T05:27:13.325Z,5.30
2018-04-07T05:28:13.346Z,4.40
2018-04-07T05:29:13.357Z,4.50
2018-04-07T05:30:13.379Z,4.70
2018-04-07T05:31:13.391Z,4.20
2018-04-07T05:32:13.407Z,4.00
2018-04-07T05:33:13.425Z,4.30
2018-04-07T05:34:13.442Z,4.60
2018-04-07T05:35:13.460Z,4.80
2018-04-07T05:36:13.476Z,4.10
2018-04-07T05:37:13.494Z,4.80
2018-04-07T05:38:13.511Z,5.10
2018-04-07T05:39:13.529Z,4.40
2018-04-07T05:40:13.542Z,4.40
2018-04-07T05:41:13.561Z,4.60
2018-04-07T05:42:13.578Z,4.80
2018-04-07T05:43:13.597Z,4.30
2018-04-07T05:44:13.611Z,4.90
2018-04-07T05:45:13.629Z,4.60
2018-04-07T05:46:13.647Z,4.00
2018-04-07T05:47:13.662Z,4.50
2018-04-07T05:48:13.679Z,4.70
2018-04-07T05:49:13.697Z,5.10
2018-04-07T05:50:13.715Z,4.40
2018-04-07T05:51:13.732Z,5.20
2018-04-07T05:52:13.748Z,4.80
2018-04-07T05:53:13.767Z,4.40
2018-04-07T05:54:13.783Z,5.30
2018-04-07T05:55:13.803Z,4.50
2018-04-07T05:56:13.816Z,4.60
2018-04-07T05:57:13.835Z,4.10
2018-04-07T05:58:13.852Z,4.80
2018-04-07T05:59:13.870Z,4.90
2018-04-07T06:00:13.885Z,4.60
2018-04-07T06:01:13.906Z,4.50
2018-04-07T06:02:13.921Z,4.50
2018-04-07T06:03:13.938Z,4.90
2018-04-07T06:04:13.954Z,5.50
2018-04-07T06:05:13.973Z,5.30
2018-04-07T06:06:13.990Z,4.50
2018-04-07T06:07:14.007Z,4.60
2018-04-07T06:08:14.027Z,4.20
2018-04-07T06:09:14.042Z,5.00
2018-04-07T06:10:14.059Z,5.10
2018-04-07T06:11:14.077Z,4.90
2018-04-07T06:12:14.098Z,4.80
2018-04-07T06:13:14.111Z,4.70
2018-04-07T06:14:14.129Z,4.60
2018-04-07T06:15:14.146Z,4.50
2018-04-07T06:16:14.166Z,4.80
2018-04-07T06:17:14.180Z,4.60
2018-04-07T06:18:14.199Z,4.70
2018-04-07T06:19:14.216Z,5.00
2018-04-07T06:20:14.233Z,5.00
2018-04-07T06:21:14.251Z,5.00
2018-04-07T06:22:14.268Z,5.50
2018-04-07T06:23:14.286Z,5.30
2018-04-07T06:24:14.304Z,5.00
2018-04-07T06:25:14.330Z,4.60
2018-04-07T06:26:14.339Z,4.60
2018-04-07T06:27:14.357Z,5.40
2018-04-07T06:28:14.374Z,4.70
2018-04-07T06:29:14.392Z,5.00
2018-04-07T06:30:14.409Z,5.30
2018-04-07T06:31:14.428Z,4.90
2018-04-07T06:32:14.444Z,4.80
2018-04-07T06:33:14.463Z,4.90
2018-04-07T06:34:14.480Z,5.20
2018-04-07T06:35:14.499Z,5.10
2018-04-07T06:36:14.515Z,5.20
2018-04-07T06:37:14.533Z,5.10
2018-04-07T06:38:14.552Z,5.30
2018-04-07T06:39:14.569Z,5.30
2018-04-07T06:40:14.586Z,4.90
2018-04-07T06:41:14.604Z,4.60
2018-04-07T06:42:14.625Z,5.00
2018-04-07T06:43:14.641Z,5.40
2018-04-07T06:44:14.660Z,4.60
2018-04-07T06:45:14.677Z,5.60
2018-04-07T06:46:14.694Z,5.50
2018-04-07T06:47:14.712Z,5.30
2018-04-07T06:48:14.730Z,4.80
2018-04-07T06:49:14.748Z,5.60
2018-04-07T06:50:14.766Z,5.40
2018-04-07T06:51:14.784Z,5.30
2018-04-07T06:52:14.802Z,5.80
2018-04-07T06:53:14.820Z,5.10
2018-04-07T06:54:14.838Z,5.30
2018-04-07T06:55:14.857Z,5.40
2018-04-07T06:56:14.872Z,5.50
2018-04-07T06:57:14.892Z,5.50
2018-04-07T06:58:14.911Z,5.90
2018-04-07T06:59:14.929Z,5.60
2018-04-07T07:00:14.949Z,6.00
2018-04-07T07:01:14.965Z,5.30
2018-04-07T07:02:14.983Z,5.00
2018-04-07T07:03:15.004Z,5.70
2018-04-07T07:04:15.020Z,6.10
2018-04-07T07:05:15.038Z,5.80
2018-04-07T07:06:15.057Z,5.80
2018-04-07T07:07:15.075Z,5.90
2018-04-07T07:08:15.094Z,5.40
2018-04-07T07:09:15.118Z,5.50
2018-04-07T07:10:15.130Z,6.00
2018-04-07T07:11:15.149Z,5.70
2018-04-07T07:12:15.168Z,6.00
2018-04-07T07:13:15.186Z,5.70
2018-04-07T07:14:15.205Z,6.00
2018-04-07T07:15:15.231Z,7.30
2018-04-07T07:16:15.242Z,6.90
2018-04-07T07:17:15.261Z,6.20
2018-04-07T07:18:15.283Z,6.00
2018-04-07T07:19:15.298Z,5.90
2018-04-07T07:20:15.318Z,6.20
2018-04-07T07:21:15.338Z,5.80
2018-04-07T07:22:15.353Z,5.80
2018-04-07T07:23:15.372Z,6.60
2018-04-07T07:24:15.446Z,6.70
2018-04-07T07:25:15.446Z,6.60
2018-04-07T07:26:15.430Z,6.40
2018-04-07T07:27:15.448Z,6.30
2018-04-07T07:28:15.466Z,7.10
2018-04-07T07:29:15.485Z,6.60
2018-04-07T07:30:15.504Z,6.50
2018-04-07T07:31:15.524Z,5.90
2018-04-07T07:32:15.542Z,6.40
2018-04-07T07:33:15.561Z,6.00
2018-04-07T07:34:15.579Z,6.60
2018-04-07T07:35:15.600Z,6.10
2018-04-07T07:36:15.618Z,6.10
2018-04-07T07:37:15.635Z,6.30
2018-04-07T07:38:15.657Z,6.50
2018-04-07T07:39:15.678Z,6.80
2018-04-07T07:40:15.693Z,6.10
2018-04-07T07:41:15.713Z,6.40
2018-04-07T07:42:15.731Z,6.20
2018-04-07T07:43:15.753Z,6.20
2018-04-07T07:44:15.770Z,6.40
2018-04-07T07:45:15.789Z,5.90
2018-04-07T07:46:15.808Z,6.70
2018-04-07T07:47:15.828Z,6.60
2018-04-07T07:48:15.846Z,7.00
2018-04-07T07:49:15.865Z,6.70
2018-04-07T07:50:15.884Z,7.00
2018-04-07T07:51:15.904Z,7.10
2018-04-07T07:52:15.924Z,6.70
2018-04-07T07:53:15.943Z,7.20
2018-04-07T07:54:15.962Z,6.60
2018-04-07T07:55:16.183Z,7.40
2018-04-07T07:56:16.001Z,6.20
2018-04-07T07:57:16.020Z,7.30
2018-04-07T07:58:16.040Z,6.50
2018-04-07T07:59:16.060Z,7.00
2018-04-07T08:00:16.079Z,6.70
2018-04-07T08:01:16.098Z,7.80
2018-04-07T08:02:16.118Z,7.70
2018-04-07T08:03:16.137Z,7.70
2018-04-07T08:04:16.162Z,7.10
2018-04-07T08:05:16.177Z,6.90
2018-04-07T08:06:16.195Z,7.10
2018-04-07T08:07:16.217Z,6.70
2018-04-07T08:08:16.234Z,6.40
2018-04-07T08:09:16.254Z,7.40
2018-04-07T08:10:16.274Z,6.80
2018-04-07T08:11:16.294Z,7.00
2018-04-07T08:12:16.313Z,7.40
2018-04-07T08:13:16.332Z,8.10
2018-04-07T08:14:16.352Z,7.90
2018-04-07T08:15:16.372Z,7.60
2018-04-07T08:16:16.394Z,6.90
2018-04-07T08:17:16.416Z,6.90
2018-04-07T08:18:16.431Z,7.10
2018-04-07T08:19:16.451Z,6.90
2018-04-07T08:20:16.470Z,6.70
2018-04-07T08:21:16.489Z,6.80
2018-04-07T08:22:16.560Z,6.90
2018-04-07T08:23:16.531Z,6.40
2018-04-07T08:24:16.550Z,7.40
2018-04-07T08:25:16.570Z,7.50
2018-04-07T08:26:16.591Z,7.00
2018-04-07T08:27:16.611Z,7.10
2018-04-07T08:28:16.629Z,7.50
2018-04-07T08:29:16.650Z,7.20
2018-04-07T08:30:16.671Z,7.00
2018-04-07T08:31:16.691Z,7.00
2018-04-07T08:32:16.744Z,7.90
2018-04-07T08:33:16.730Z,7.20
2018-04-07T08:34:16.750Z,7.20
2018-04-07T08:35:16.772Z,7.70
2018-04-07T08:36:16.796Z,7.90
2018-04-07T08:37:16.811Z,7.50
2018-04-07T08:38:16.832Z,7.50
2018-04-07T08:39:16.865Z,7.00
2018-04-07T08:40:16.873Z,8.30
2018-04-07T08:41:16.894Z,7.40
2018-04-07T08:42:16.914Z,7.60
2018-04-07T08:43:16.935Z,7.90
2018-04-07T08:44:16.957Z,6.90
2018-04-07T08:45:17.036Z,7.60
2018-04-07T08:46:16.996Z,8.00
2018-04-07T08:47:17.016Z,7.60
2018-04-07T08:48:17.040Z,7.50
2018-04-07T08:49:17.057Z,8.20
2018-04-07T08:50:17.082Z,8.00
2018-04-07T08:51:17.099Z,8.10
2018-04-07T08:52:17.120Z,8.40
2018-04-07T08:53:17.141Z,8.60
2018-04-07T08:54:17.162Z,8.00
2018-04-07T08:55:17.183Z,8.10
2018-04-07T08:56:17.205Z,8.30
2018-04-07T08:57:17.264Z,8.00
2018-04-07T08:58:17.254Z,8.10
2018-04-07T08:59:17.268Z,7.70
2018-04-07T09:00:17.288Z,8.00
2018-04-07T09:01:17.310Z,9.50
2018-04-07T09:02:17.332Z,8.00
2018-04-07T09:03:17.353Z,8.20
2018-04-07T09:04:17.374Z,8.40
2018-04-07T09:05:17.396Z,9.00
2018-04-07T09:06:17.417Z,7.90
2018-04-07T09:07:17.440Z,10.50
2018-04-07T09:08:17.460Z,9.10
2018-04-07T09:09:17.482Z,8.60
2018-04-07T09:10:17.505Z,8.20
2018-04-07T09:11:17.527Z,8.60
2018-04-07T09:12:17.550Z,8.20
2018-04-07T09:13:17.570Z,8.40
2018-04-07T09:14:17.591Z,8.20
2018-04-07T09:15:17.614Z,8.50
2018-04-07T09:16:17.635Z,8.40
2018-04-07T09:17:17.659Z,8.10
2018-04-07T09:18:17.680Z,8.00
2018-04-07T09:19:17.703Z,9.10
2018-04-07T09:20:17.724Z,8.60
2018-04-07T09:21:17.746Z,8.70
2018-04-07T09:22:17.768Z,8.60
2018-04-07T09:23:17.791Z,9.20
2018-04-07T09:24:17.812Z,8.70
2018-04-07T09:25:17.842Z,8.00
2018-04-07T09:26:17.858Z,9.30
2018-04-07T09:27:17.880Z,8.80
2018-04-07T09:28:17.903Z,8.60
2018-04-07T09:29:17.925Z,8.80
2018-04-07T09:30:17.948Z,8.70
2018-04-07T09:31:17.971Z,8.60
2018-04-07T09:32:17.994Z,8.50
2018-04-07T09:33:18.016Z,8.50
2018-04-07T09:34:18.039Z,8.70
2018-04-07T09:35:18.064Z,8.60
2018-04-07T09:36:18.084Z,8.40
2018-04-07T09:37:18.107Z,8.00
2018-04-07T09:38:18.130Z,8.00
2018-04-07T09:39:18.153Z,8.20
2018-04-07T09:40:18.175Z,7.60
2018-04-07T09:41:18.199Z,7.50
2018-04-07T09:42:18.222Z,7.60
2018-04-07T09:43:18.247Z,8.10
2018-04-07T09:44:18.268Z,7.70
2018-04-07T09:45:18.295Z,8.30
2018-04-07T09:46:18.314Z,9.10
2018-04-07T09:47:18.338Z,8.40
2018-04-07T09:48:18.361Z,8.40
2018-04-07T09:49:18.388Z,7.70
2018-04-07T09:50:18.408Z,8.70
2018-04-07T09:51:18.431Z,7.70
2018-04-07T09:52:18.454Z,8.50
2018-04-07T09:53:18.478Z,7.70
2018-04-07T09:54:18.501Z,8.30
2018-04-07T09:55:18.524Z,7.60
2018-04-07T09:56:18.546Z,8.20
2018-04-07T09:57:18.572Z,7.80
2018-04-07T09:58:18.595Z,7.60
2018-04-07T09:59:18.619Z,7.70
2018-04-07T10:00:18.641Z,8.20
2018-04-07T10:01:18.668Z,8.20
2018-04-07T10:02:18.695Z,8.40
2018-04-07T10:03:18.713Z,8.00
2018-04-07T10:04:18.736Z,8.70
2018-04-07T10:05:18.779Z,8.00
2018-04-07T10:06:18.784Z,7.80
2018-04-07T10:07:18.808Z,8.30
2018-04-07T10:08:18.831Z,8.10
2018-04-07T10:09:18.855Z,7.80
2018-04-07T10:10:18.878Z,7.40
2018-04-07T10:11:18.902Z,8.20
2018-04-07T10:12:18.926Z,8.30
2018-04-07T10:13:18.950Z,8.10
2018-04-07T10:14:18.974Z,8.10
2018-04-07T10:15:18.998Z,7.70
2018-04-07T10:16:19.021Z,7.50
2018-04-07T10:17:19.396Z,7.50
2018-04-07T10:18:19.072Z,8.10
2018-04-07T10:19:19.097Z,8.10
2018-04-07T10:20:19.118Z,8.30
2018-04-07T10:21:19.141Z,8.30
2018-04-07T10:22:19.168Z,8.80
2018-04-07T10:23:19.190Z,8.20
2018-04-07T10:24:19.213Z,8.30
2018-04-07T10:25:19.240Z,8.30
2018-04-07T10:26:19.263Z,8.20
2018-04-07T10:27:19.287Z,8.20
2018-04-07T10:28:19.310Z,8.10
2018-04-07T10:29:19.335Z,8.00
2018-04-07T10:30:19.361Z,8.60
2018-04-07T10:31:19.384Z,8.70
2018-04-07T10:32:19.408Z,8.20
2018-04-07T10:33:19.435Z,8.60
2018-04-07T10:34:19.456Z,8.80
2018-04-07T10:35:19.482Z,8.10
2018-04-07T10:36:19.557Z,7.80
2018-04-07T10:37:19.531Z,8.50
2018-04-07T10:38:19.656Z,8.80
2018-04-07T10:39:19.585Z,7.90
2018-04-07T10:40:19.604Z,8.90
2018-04-07T10:41:19.629Z,9.10
2018-04-07T10:42:19.657Z,8.80
2018-04-07T10:43:19.678Z,8.90
2018-04-07T10:44:19.703Z,8.50
2018-04-07T10:45:19.726Z,9.80
2018-04-07T10:46:19.753Z,8.90
2018-04-07T10:47:19.780Z,8.60
2018-04-07T10:48:19.802Z,9.00
2018-04-07T10:49:19.826Z,8.50
2018-04-07T10:50:19.852Z,9.40
2018-04-07T10:51:19.876Z,8.80
2018-04-07T10:52:19.901Z,8.20
2018-04-07T10:53:19.926Z,8.90
2018-04-07T10:54:19.951Z,8.70
2018-04-07T10:55:19.976Z,8.60
2018-04-07T10:56:20.000Z,8.10
2018-04-07T10:57:20.025Z,8.40
2018-04-07T10:58:20.050Z,8.60
2018-04-07T10:59:20.076Z,9.10
2018-04-07T11:00:20.100Z,8.10
2018-04-07T11:01:20.126Z,9.90
2018-04-07T11:02:20.150Z,9.20
2018-04-07T11:03:20.178Z,8.20
2018-04-07T11:04:20.199Z,9.00
2018-04-07T11:05:20.225Z,7.70
2018-04-07T11:06:20.251Z,8.50
2018-04-07T11:07:20.275Z,8.50
2018-04-07T11:08:20.300Z,8.30
2018-04-07T11:09:20.324Z,8.70
2018-04-07T11:10:20.350Z,8.60
2018-04-07T11:11:20.378Z,8.10
2018-04-07T11:12:20.403Z,8.10
2018-04-07T11:13:20.428Z,8.90
2018-04-07T11:14:20.451Z,8.50
2018-04-07T11:15:20.476Z,9.50
2018-04-07T11:16:20.502Z,8.30
2018-04-07T11:17:21.278Z,9.00
2018-04-07T11:18:20.703Z,8.30
2018-04-07T11:19:20.578Z,8.10
2018-04-07T11:20:20.603Z,8.10
2018-04-07T11:21:20.627Z,8.90
2018-04-07T11:22:20.654Z,8.90
2018-04-07T11:23:20.679Z,8.50
2018-04-07T11:24:20.706Z,8.90
2018-04-07T11:25:20.730Z,8.20
2018-04-07T11:26:20.756Z,8.80
2018-04-07T11:27:20.782Z,8.80
2018-04-07T11:28:20.806Z,7.90
2018-04-07T11:29:20.833Z,8.70
2018-04-07T11:30:20.859Z,8.50
2018-04-07T11:31:20.885Z,8.10
2018-04-07T11:32:20.909Z,8.60
2018-04-07T11:33:20.936Z,9.30
2018-04-07T11:34:20.962Z,8.80
2018-04-07T11:35:20.993Z,8.60
2018-04-07T11:36:21.012Z,7.90
2018-04-07T11:37:21.039Z,8.30
2018-04-07T11:38:21.065Z,8.50
2018-04-07T11:39:21.092Z,8.00
2018-04-07T11:40:21.116Z,8.40
2018-04-07T11:41:21.142Z,8.20
2018-04-07T11:42:21.171Z,8.00
2018-04-07T11:43:21.196Z,7.70
2018-04-07T11:44:21.222Z,8.30
2018-04-07T11:45:21.247Z,8.80
2018-04-07T11:46:21.273Z,8.30
2018-04-07T11:47:21.300Z,8.10
2018-04-07T11:48:21.325Z,7.90
2018-04-07T11:49:21.351Z,8.20
2018-04-07T11:50:21.378Z,7.70
2018-04-07T11:51:21.403Z,8.20
2018-04-07T11:52:21.430Z,8.40
2018-04-07T11:53:21.459Z,7.90
2018-04-07T11:54:21.483Z,7.40
2018-04-07T11:55:21.511Z,8.90
2018-04-07T11:56:21.534Z,8.50
2018-04-07T11:57:21.561Z,8.20
2018-04-07T11:58:21.587Z,7.90
2018-04-07T11:59:21.613Z,8.90
2018-04-07T12:00:21.640Z,7.70
2018-04-07T12:01:21.665Z,7.90
2018-04-07T12:02:21.739Z,8.30
2018-04-07T12:03:21.718Z,8.00
2018-04-07T12:04:21.744Z,8.40
2018-04-07T12:05:21.773Z,8.70
2018-04-07T12:06:21.798Z,8.40
2018-04-07T12:07:21.824Z,8.00
2018-04-07T12:08:21.849Z,8.00
2018-04-07T12:09:21.878Z,8.50
2018-04-07T12:10:21.916Z,8.50
2018-04-07T12:11:21.928Z,7.80
2018-04-07T12:12:21.954Z,7.90
2018-04-07T12:13:21.981Z,8.30
2018-04-07T12:14:22.007Z,7.40
2018-04-07T12:15:22.034Z,7.90
2018-04-07T12:16:22.059Z,8.20
2018-04-07T12:17:22.085Z,8.00
2018-04-07T12:18:22.113Z,7.80
2018-04-07T12:19:22.139Z,8.30
2018-04-07T12:20:22.165Z,8.10
2018-04-07T12:21:22.192Z,7.80
2018-04-07T12:22:22.217Z,7.60
2018-04-07T12:23:22.245Z,7.70
2018-04-07T12:24:22.270Z,12.80
2018-04-07T12:25:22.297Z,12.70
2018-04-07T12:26:22.328Z,9.50
2018-04-07T12:27:22.350Z,11.40
2018-04-07T12:28:22.377Z,8.50
2018-04-07T12:29:22.405Z,8.40
2018-04-07T12:30:22.430Z,7.60
2018-04-07T12:31:22.456Z,8.70
2018-04-07T12:32:22.481Z,7.80
2018-04-07T12:33:22.510Z,8.10
2018-04-07T12:34:22.537Z,7.20
2018-04-07T12:35:22.564Z,7.30
2018-04-07T12:36:22.593Z,6.90
2018-04-07T12:37:22.617Z,6.80
2018-04-07T12:38:22.648Z,7.40
2018-04-07T12:39:22.671Z,6.10
2018-04-07T12:40:22.697Z,7.20
2018-04-07T12:41:22.724Z,6.00
2018-04-07T12:42:22.750Z,5.50
2018-04-07T12:43:22.778Z,5.50
2018-04-07T12:44:22.809Z,5.60
2018-04-07T12:45:22.831Z,6.20
2018-04-07T12:46:22.858Z,5.50
2018-04-07T12:47:22.885Z,5.80
2018-04-07T12:48:22.913Z,5.60
2018-04-07T12:49:22.939Z,5.30
2018-04-07T12:50:22.966Z,5.20
2018-04-07T12:51:22.992Z,5.30
2018-04-07T12:52:23.023Z,7.00
2018-04-07T12:53:23.046Z,6.90
2018-04-07T12:54:23.074Z,6.20
2018-04-07T12:55:23.101Z,6.00
2018-04-07T12:56:23.128Z,5.30
2018-04-07T12:57:23.155Z,5.20
2018-04-07T12:58:23.181Z,6.00
2018-04-07T12:59:23.210Z,5.70
2018-04-07T13:00:23.236Z,5.70
2018-04-07T13:01:23.263Z,4.80
2018-04-07T13:02:23.290Z,5.10
2018-04-07T13:03:23.318Z,5.40
2018-04-07T13:04:23.344Z,5.40
2018-04-07T13:05:23.372Z,6.50
2018-04-07T13:06:23.398Z,5.30
2018-04-07T13:07:23.425Z,5.10
2018-04-07T13:08:23.453Z,5.10
2018-04-07T13:09:23.479Z,5.30
2018-04-07T13:10:23.507Z,5.10
2018-04-07T13:11:23.535Z,5.00
2018-04-07T13:12:23.562Z,4.40
2018-04-07T13:13:23.592Z,3.80
2018-04-07T13:14:23.617Z,3.80
2018-04-07T13:15:23.644Z,3.80
2018-04-07T13:16:23.670Z,4.00
2018-04-07T13:17:23.699Z,6.00